Airfield :







YOU CAN JOIN US ON...

 
LOGIN :

Register | Disclaimer

   EN    FR    IT 

 









Legend :    VFR   Marginal VFR   IFR   Intensive IFR   Very Intensive IFR
Visi :
Ceiling :
>= 8 km
>= 3000ft
5 to 8 km
1000 to 3000 ft
1500m to 5 km
500 to 1000 ft
800 to 1500m
200 to 500 ft
< 800m
< 200 ft
Symbols :   Thunderstorms  Fog  Heavy snow  Heavy precipitations  Wind > 20 kt






- Airport Elevation : 167 ft
- IATA code : YAW


CYAW - CFB Shearwater

CURRENT METAR :
  • 200031Z 29022G31KT 15SM FEW050 M01/M10 A2991 RMK SC1 DA-1697FT LAST OBS/NXT 201100 UTC SLP131

EXPIRED METARs :
  • 200000Z 28023G31KT 15SM FEW050 00/M09 A2989 RMK SC2 DA-1531FT SLP124
  • 192300Z 27017G24KT 15SM OVC044 01/M07 A2987 RMK SC8 DA-1388FT SLP115

TAF TAF CYAW
Valid from the 20 at 00:00 until the 20 at 06:00 UTC


192330Z 2000/2006 27015G25KT P6SM BKN070 BKN120
TEMPO 2000/2002 5SM -SHSN BKN020 OVC070
FM200200 30015G25KT P6SM BKN030
BECMG 2003/2005 SCT030 RMK NXT FCST BY 200600Z



MET'MAP, your aeronautical weather chart ! - Copyright ORBIFLY December 2007 - Disclaimer

ORBIFLY MET'MAP TEAM :

Programming & Development : Alexandra Zaïnal
Concept & original design : Baudouin d'Aumeries
Assistance for programming : Marc-Olivier Méhu
Technical & hardware support : Manuel Goepfert

Contact : metmap@orbifly.com




SOURCES & CREDITS :

   NOAA